Time;durP1;ratioP1;P1;durP2;ratioP2;P2;SDS_P1;SDS_P2;PMS_P1;PMS_P2;Temp;Humidity;BMP_temperature;BMP_pressure;BME280_temperature;BME280_humidity;BME280_pressure;Samples;Min_cycle;Max_cycle;Signal;HPM_P1;HPM_P2
2021/11/17 02:26:59;;;;;;;19.47;17.93;;;6.10;99.90;;;;;;4949955;28;20190;-79
2021/11/17 02:29:47;;;;;;;18.10;16.70;;;6.00;99.90;;;;;;4956602;28;20760;-79
2021/11/17 02:32:32;;;;;;;18.07;16.67;;;6.00;99.90;;;;;;4956496;29;20639;-79
2021/11/17 02:35:20;;;;;;;18.63;17.13;;;6.00;99.90;;;;;;4953555;28;20206;-78
2021/11/17 02:37:59;;;;;;;18.90;17.50;;;6.00;99.90;;;;;;4952953;29;20199;-78
2021/11/17 02:40:46;;;;;;;18.57;17.20;;;6.00;99.90;;;;;;4950734;28;20625;-78
2021/11/17 02:43:30;;;;;;;18.17;16.83;;;6.00;99.90;;;;;;4955418;28;20227;-78
2021/11/17 02:46:13;;;;;;;19.40;17.90;;;6.10;99.90;;;;;;4952994;28;20198;-78
2021/11/17 02:48:57;;;;;;;17.83;16.43;;;6.10;99.90;;;;;;4950909;28;20199;-78
2021/11/17 02:51:45;;;;;;;18.77;17.37;;;6.10;99.90;;;;;;4952650;28;20226;-78
2021/11/17 02:54:30;;;;;;;17.97;16.57;;;6.10;99.90;;;;;;4952236;28;20207;-79
2021/11/17 02:57:15;;;;;;;17.80;16.43;;;6.00;99.90;;;;;;4950731;28;20296;-79
2021/11/17 03:00:10;;;;;;;18.60;17.10;;;6.00;99.90;;;;;;4943135;28;20347;-79
2021/11/17 03:02:57;;;;;;;18.03;16.70;;;6.00;99.90;;;;;;4941982;28;20239;-78
2021/11/17 03:05:37;;;;;;;17.73;16.43;;;6.00;99.90;;;;;;4953731;28;20199;-79
2021/11/17 03:08:28;;;;;;;17.10;15.80;;;6.00;99.90;;;;;;4952187;28;20265;-79
2021/11/17 03:11:35;;;;;;;17.37;16.07;;;6.00;99.90;;;;;;4952950;28;20218;-78
2021/11/17 03:14:18;;;;;;;18.27;16.87;;;6.00;99.90;;;;;;4949030;28;20625;-79
2021/11/17 03:17:10;;;;;;;18.30;16.90;;;6.10;99.90;;;;;;4944470;28;20210;-78
2021/11/17 03:19:48;;;;;;;17.17;15.87;;;6.00;99.90;;;;;;4949746;28;20206;-78
2021/11/17 03:22:29;;;;;;;17.57;16.27;;;6.00;99.90;;;;;;4949062;28;20278;-78
2021/11/17 03:25:24;;;;;;;18.10;16.73;;;6.00;99.90;;;;;;4949430;28;20577;-78
2021/11/17 03:28:03;;;;;;;17.67;16.33;;;6.00;99.90;;;;;;4951543;28;20631;-78
2021/11/17 03:30:46;;;;;;;18.17;16.90;;;6.00;99.90;;;;;;4945553;28;20215;-79
2021/11/17 03:33:39;;;;;;;18.47;17.07;;;6.00;99.90;;;;;;4951909;28;20657;-80
2021/11/17 03:36:23;;;;;;;18.60;17.10;;;6.10;99.90;;;;;;4952111;28;20942;-79
2021/11/17 03:39:25;;;;;;;18.33;16.87;;;6.00;99.90;;;;;;4952726;28;20195;-77
2021/11/17 03:42:14;;;;;;;18.40;17.10;;;6.00;99.90;;;;;;4947431;28;20245;-79
2021/11/17 03:45:14;;;;;;;17.77;16.47;;;6.00;99.90;;;;;;4955071;29;20262;-81
2021/11/17 03:47:56;;;;;;;17.03;15.77;;;6.00;99.90;;;;;;4955031;29;20216;-80
2021/11/17 03:50:43;;;;;;;17.60;16.40;;;6.00;99.90;;;;;;4954797;28;20278;-79
2021/11/17 03:53:23;;;;;;;17.73;16.43;;;6.00;99.90;;;;;;4948321;29;20226;-80
2021/11/17 03:56:09;;;;;;;17.67;16.37;;;6.00;99.90;;;;;;4946036;28;20876;-80
2021/11/17 03:58:49;;;;;;;18.53;17.03;;;5.90;99.90;;;;;;4943532;28;20238;-80
2021/11/17 04:01:41;;;;;;;17.93;16.60;;;5.90;99.90;;;;;;4947383;28;20205;-80
2021/11/17 04:04:23;;;;;;;17.60;16.27;;;6.00;99.90;;;;;;4954000;29;20199;-79
2021/11/17 04:07:05;;;;;;;18.53;17.13;;;6.00;99.90;;;;;;4953475;29;20656;-79
2021/11/17 04:09:51;;;;;;;17.80;16.40;;;6.00;99.90;;;;;;4945788;28;20630;-79
2021/11/17 04:12:31;;;;;;;18.73;17.07;;;6.00;99.90;;;;;;4951363;28;20226;-78
2021/11/17 04:15:12;;;;;;;18.73;17.30;;;5.90;99.90;;;;;;4948637;28;20211;-77
2021/11/17 04:17:51;;;;;;;18.80;17.50;;;6.00;99.90;;;;;;4952600;28;20252;-78
2021/11/17 04:20:34;;;;;;;18.10;16.70;;;6.00;99.90;;;;;;4950202;29;20187;-81
2021/11/17 04:23:27;;;;;;;19.23;17.60;;;5.90;99.90;;;;;;4947417;28;20279;-79
2021/11/17 04:26:11;;;;;;;19.73;18.13;;;5.90;99.90;;;;;;4945576;28;20584;-79
2021/11/17 04:28:53;;;;;;;18.57;17.07;;;5.90;99.90;;;;;;4949794;28;20206;-79
2021/11/17 04:31:51;;;;;;;18.37;16.83;;;5.90;99.90;;;;;;4948471;28;20223;-79
2021/11/17 04:34:50;;;;;;;18.50;17.10;;;5.90;99.90;;;;;;4949162;28;20835;-79
2021/11/17 04:37:56;;;;;;;19.00;17.47;;;5.90;99.90;;;;;;4946794;28;20601;-79
2021/11/17 04:40:53;;;;;;;19.20;17.80;;;5.90;99.90;;;;;;4941907;28;20265;-79
2021/11/17 04:43:46;;;;;;;19.47;17.97;;;5.90;99.90;;;;;;4954086;28;20290;-78
2021/11/17 04:46:27;;;;;;;19.57;18.17;;;5.90;99.90;;;;;;4947315;28;20202;-79
2021/11/17 04:49:08;;;;;;;20.00;18.50;;;5.90;99.90;;;;;;4950535;28;20206;-79
2021/11/17 04:51:51;;;;;;;18.63;17.23;;;5.90;99.90;;;;;;4943905;28;20226;-79
2021/11/17 04:54:42;;;;;;;17.60;16.30;;;5.90;99.90;;;;;;4948784;28;20211;-79
2021/11/17 04:57:24;;;;;;;18.30;16.90;;;5.90;99.90;;;;;;4951663;28;20659;-79
2021/11/17 05:00:06;;;;;;;19.20;17.60;;;5.90;99.90;;;;;;4949719;28;20257;-79
2021/11/17 05:02:54;;;;;;;18.63;17.27;;;5.90;99.90;;;;;;4943898;28;20218;-79
2021/11/17 05:05:37;;;;;;;18.50;17.03;;;5.90;99.90;;;;;;4949064;28;20266;-79
2021/11/17 05:08:13;;;;;;;17.50;16.30;;;5.90;99.90;;;;;;4948809;28;20202;-80
2021/11/17 05:10:52;;;;;;;18.50;17.10;;;5.90;99.90;;;;;;4952155;28;20207;-79
2021/11/17 05:13:29;;;;;;;18.83;17.43;;;5.90;99.90;;;;;;4952346;28;20226;-80
2021/11/17 05:16:08;;;;;;;17.73;16.53;;;5.90;99.90;;;;;;4950334;28;20206;-80
2021/11/17 05:18:43;;;;;;;17.63;16.43;;;5.90;99.90;;;;;;4948986;29;20263;-78
2021/11/17 05:21:23;;;;;;;16.90;15.70;;;5.90;99.90;;;;;;4953364;29;20194;-79
2021/11/17 05:24:06;;;;;;;17.80;16.50;;;5.90;99.90;;;;;;4949359;28;20207;-79
2021/11/17 05:26:47;;;;;;;17.70;16.37;;;5.90;99.90;;;;;;4946550;28;20198;-79
2021/11/17 05:29:34;;;;;;;17.10;16.00;;;5.90;99.90;;;;;;4949866;28;20565;-79
2021/11/17 05:32:15;;;;;;;16.73;15.60;;;5.90;99.90;;;;;;4945817;28;20222;-79
2021/11/17 05:34:54;;;;;;;16.90;15.80;;;5.90;99.90;;;;;;4941153;28;20242;-79
2021/11/17 05:37:31;;;;;;;16.73;15.50;;;5.90;99.90;;;;;;4954408;28;20235;-79
2021/11/17 05:40:23;;;;;;;16.67;15.50;;;5.90;99.90;;;;;;4951373;29;20213;-79
2021/11/17 05:43:02;;;;;;;16.47;15.37;;;5.90;99.90;;;;;;4945923;28;20227;-79
2021/11/17 05:45:42;;;;;;;17.53;16.33;;;5.90;99.90;;;;;;4946696;28;20194;-78
2021/11/17 05:48:21;;;;;;;16.73;15.53;;;5.90;99.90;;;;;;4946943;28;20261;-79
2021/11/17 05:51:01;;;;;;;16.40;15.37;;;5.90;99.90;;;;;;4947516;28;20269;-79
2021/11/17 05:53:42;;;;;;;17.67;16.47;;;5.90;99.90;;;;;;4939238;28;20615;-79
2021/11/17 05:56:36;;;;;;;17.40;16.23;;;5.90;99.90;;;;;;4949788;28;20671;-79
2021/11/17 05:59:24;;;;;;;16.50;15.40;;;5.90;99.90;;;;;;4948398;28;20206;-80
2021/11/17 06:02:11;;;;;;;16.77;15.70;;;5.90;99.90;;;;;;4949799;28;20223;-79
2021/11/17 06:04:38;;;;;;;16.93;15.60;;;6.00;99.90;;;;;;4942891;28;20678;-79
2021/11/17 06:07:04;;;;;;;16.70;15.60;;;6.00;99.90;;;;;;4948400;28;20259;-79
2021/11/17 06:09:31;;;;;;;16.67;15.53;;;6.00;99.90;;;;;;4951349;28;20257;-79
2021/11/17 06:12:03;;;;;;;17.87;16.63;;;6.00;99.90;;;;;;4949711;28;20317;-80
2021/11/17 06:14:38;;;;;;;17.63;16.33;;;6.00;99.90;;;;;;4945948;28;20210;-80
2021/11/17 06:17:07;;;;;;;16.90;15.80;;;6.00;99.90;;;;;;4947369;28;20257;-80
2021/11/17 06:19:38;;;;;;;16.67;15.47;;;6.00;99.90;;;;;;4951532;28;20203;-80
2021/11/17 06:22:06;;;;;;;16.47;15.33;;;6.00;99.90;;;;;;4947438;28;20216;-79
2021/11/17 06:24:34;;;;;;;17.53;16.23;;;6.00;99.90;;;;;;4950649;28;20258;-80
2021/11/17 06:27:03;;;;;;;17.77;16.43;;;6.00;99.90;;;;;;4949221;28;20195;-80
2021/11/17 06:29:34;;;;;;;17.53;16.23;;;6.00;99.90;;;;;;4948210;28;20203;-80
2021/11/17 06:32:02;;;;;;;16.77;15.57;;;6.00;99.90;;;;;;4959210;28;20831;-79
2021/11/17 06:34:33;;;;;;;16.90;15.70;;;6.00;99.90;;;;;;4952344;28;20191;-79
2021/11/17 06:37:02;;;;;;;17.27;16.07;;;6.00;99.90;;;;;;4953353;28;20206;-82
2021/11/17 06:39:30;;;;;;;16.93;15.73;;;5.90;99.90;;;;;;4947886;28;20611;-80
2021/11/17 06:41:58;;;;;;;17.77;16.47;;;5.90;99.90;;;;;;4953809;28;20273;-80
2021/11/17 06:44:26;;;;;;;16.97;15.77;;;5.90;99.90;;;;;;4952109;28;20247;-80
2021/11/17 06:46:53;;;;;;;17.57;16.27;;;5.90;99.90;;;;;;4952564;28;20739;-80
2021/11/17 06:49:20;;;;;;;17.37;16.17;;;5.90;99.90;;;;;;4952967;28;20250;-80
2021/11/17 06:51:47;;;;;;;17.80;16.40;;;5.90;99.90;;;;;;4949570;28;20235;-80
2021/11/17 06:54:14;;;;;;;16.80;15.60;;;5.90;99.90;;;;;;4949459;28;20215;-80
2021/11/17 06:56:41;;;;;;;17.77;16.43;;;5.90;99.90;;;;;;4947784;28;20274;-80
2021/11/17 06:59:08;;;;;;;18.40;17.00;;;5.90;99.90;;;;;;4949052;28;20263;-80
2021/11/17 07:01:36;;;;;;;18.40;17.00;;;6.00;99.90;;;;;;4950771;28;20310;-80
2021/11/17 07:04:04;;;;;;;17.40;16.10;;;6.00;99.90;;;;;;4955661;28;20230;-80
2021/11/17 07:06:30;;;;;;;17.10;15.90;;;5.90;99.90;;;;;;4947738;28;20202;-80
2021/11/17 07:08:57;;;;;;;17.87;16.60;;;5.90;99.90;;;;;;4954175;28;20303;-79
2021/11/17 07:11:24;;;;;;;17.20;15.97;;;6.00;99.90;;;;;;4953404;28;20211;-80
2021/11/17 07:13:51;;;;;;;17.77;16.37;;;5.90;99.90;;;;;;4952036;28;20203;-79
2021/11/17 07:16:18;;;;;;;18.23;16.73;;;6.00;99.90;;;;;;4950180;28;20572;-80
2021/11/17 07:18:46;;;;;;;19.10;17.53;;;6.00;99.90;;;;;;4954936;28;20246;-80
2021/11/17 07:21:13;;;;;;;18.27;16.87;;;6.00;99.90;;;;;;4958745;28;20187;-80
2021/11/17 07:23:40;;;;;;;18.67;17.17;;;6.00;99.90;;;;;;4953443;28;20265;-80
2021/11/17 07:26:08;;;;;;;18.60;17.20;;;6.10;99.90;;;;;;4952984;28;20230;-80
2021/11/17 07:28:35;;;;;;;18.40;17.00;;;6.10;99.90;;;;;;4958346;28;20198;-81
2021/11/17 07:31:02;;;;;;;18.40;17.17;;;6.10;99.90;;;;;;4957870;28;20226;-80
2021/11/17 07:33:29;;;;;;;10.90;9.90;;;6.20;99.90;;;;;;4958375;28;20239;-80
2021/11/17 07:35:57;;;;;;;8.23;7.37;;;6.20;99.90;;;;;;4952084;28;20207;-80
2021/11/17 07:38:25;;;;;;;7.57;6.20;;;6.30;99.90;;;;;;4955678;28;20199;-80
2021/11/17 07:40:54;;;;;;;13.57;12.47;;;6.40;99.90;;;;;;4954269;28;20205;-80
2021/11/17 07:43:23;;;;;;;8.50;7.60;;;6.50;99.90;;;;;;4950867;28;20277;-80
2021/11/17 07:45:50;;;;;;;14.27;13.07;;;6.50;99.90;;;;;;4957183;28;20217;-80
2021/11/17 07:48:19;;;;;;;12.67;11.47;;;6.50;99.90;;;;;;4952396;28;20242;-80
2021/11/17 07:50:47;;;;;;;10.93;9.47;;;6.40;99.90;;;;;;4953891;28;20277;-80
2021/11/17 07:53:17;;;;;;;15.30;14.10;;;6.40;99.90;;;;;;4951924;28;20232;-80
2021/11/17 07:55:45;;;;;;;10.67;9.70;;;6.40;99.90;;;;;;4953793;28;20207;-80
2021/11/17 07:58:14;;;;;;;14.53;13.33;;;6.50;99.90;;;;;;4956104;29;20251;-81
2021/11/17 08:00:47;;;;;;;16.27;15.07;;;6.50;99.90;;;;;;4953682;29;20286;-80
2021/11/17 08:03:15;;;;;;;12.03;10.93;;;6.50;99.90;;;;;;4954758;28;20285;-80
2021/11/17 08:05:44;;;;;;;8.93;8.03;;;6.50;99.90;;;;;;4952183;28;20211;-80
2021/11/17 08:08:11;;;;;;;10.13;9.23;;;6.50;99.90;;;;;;4948377;28;20207;-80
2021/11/17 08:10:40;;;;;;;6.77;6.17;;;6.40;99.90;;;;;;4951909;28;20251;-80
2021/11/17 08:13:07;;;;;;;6.27;5.67;;;6.50;99.90;;;;;;4953714;28;20219;-80
2021/11/17 08:15:35;;;;;;;6.20;5.60;;;6.50;99.90;;;;;;4952545;28;20203;-80
2021/11/17 08:18:03;;;;;;;6.10;5.27;;;6.50;99.90;;;;;;4951370;28;20218;-80
2021/11/17 08:20:30;;;;;;;7.33;5.77;;;6.60;99.90;;;;;;4950265;28;20203;-80
2021/11/17 08:22:59;;;;;;;7.10;5.60;;;6.60;99.90;;;;;;4951958;28;20223;-80
2021/11/17 08:25:28;;;;;;;7.93;6.60;;;6.60;99.90;;;;;;4953523;28;20242;-80
2021/11/17 08:27:57;;;;;;;13.77;12.70;;;6.70;99.90;;;;;;4952072;28;20267;-79
2021/11/17 08:30:26;;;;;;;10.43;7.00;;;6.70;99.90;;;;;;4948497;28;20199;-80
2021/11/17 08:32:54;;;;;;;7.70;6.47;;;6.70;99.90;;;;;;4947798;28;20649;-80
2021/11/17 08:35:23;;;;;;;7.87;6.70;;;6.60;99.90;;;;;;4952009;28;20206;-80
2021/11/17 08:37:53;;;;;;;9.53;8.63;;;6.60;99.90;;;;;;4949119;28;20254;-80
2021/11/17 08:40:22;;;;;;;13.33;12.33;;;6.60;99.90;;;;;;4951629;28;20212;-80
2021/11/17 08:42:48;;;;;;;10.23;9.33;;;6.60;99.90;;;;;;4950712;28;20220;-79
2021/11/17 08:45:17;;;;;;;9.30;8.50;;;6.60;99.90;;;;;;4956064;28;20199;-80
2021/11/17 08:47:45;;;;;;;10.23;9.33;;;6.70;99.90;;;;;;4950768;28;20250;-80
2021/11/17 08:50:15;;;;;;;6.43;5.80;;;6.80;99.90;;;;;;4962832;28;20254;-81
2021/11/17 08:52:42;;;;;;;6.53;5.73;;;6.90;99.90;;;;;;4953440;28;20254;-80
2021/11/17 08:55:10;;;;;;;10.63;9.73;;;7.10;99.90;;;;;;4951443;28;20211;-81
2021/11/17 08:57:37;;;;;;;10.73;9.87;;;7.20;99.90;;;;;;4949907;28;20210;-81
2021/11/17 09:00:07;;;;;;;7.13;6.43;;;7.30;99.90;;;;;;4955530;28;20215;-81
2021/11/17 09:02:40;;;;;;;15.07;14.07;;;7.40;99.90;;;;;;4949978;28;20696;-81
2021/11/17 09:05:11;;;;;;;6.20;5.33;;;7.40;99.90;;;;;;4956396;28;20204;-81
2021/11/17 09:07:39;;;;;;;14.80;13.70;;;7.40;99.90;;;;;;4955352;28;20569;-80
2021/11/17 09:10:07;;;;;;;15.60;14.53;;;7.40;99.90;;;;;;4955070;28;20207;-81
2021/11/17 09:12:34;;;;;;;14.93;13.87;;;7.40;99.90;;;;;;4956775;28;20220;-80
2021/11/17 09:15:01;;;;;;;14.43;13.43;;;7.40;99.90;;;;;;4954978;28;20225;-81
2021/11/17 09:17:28;;;;;;;14.67;13.73;;;7.40;99.90;;;;;;4955515;28;20231;-81
2021/11/17 09:19:57;;;;;;;14.30;13.30;;;7.50;99.90;;;;;;4955610;28;20208;-81
2021/11/17 09:22:24;;;;;;;14.53;13.63;;;7.60;99.90;;;;;;4956566;28;20727;-80
2021/11/17 09:24:51;;;;;;;13.63;12.83;;;7.60;99.90;;;;;;4952955;28;20201;-80
2021/11/17 09:27:18;;;;;;;14.57;13.57;;;7.70;99.90;;;;;;4954941;28;20555;-81
2021/11/17 09:29:45;;;;;;;14.70;13.80;;;7.70;99.90;;;;;;4955995;28;20196;-81
2021/11/17 09:32:12;;;;;;;13.83;12.93;;;7.70;99.90;;;;;;4953162;28;20232;-81
2021/11/17 09:34:39;;;;;;;14.10;13.20;;;7.70;99.90;;;;;;4952562;28;20201;-80
2021/11/17 09:37:08;;;;;;;15.00;13.90;;;7.70;99.90;;;;;;4951532;28;20674;-81
2021/11/17 09:39:35;;;;;;;14.60;13.67;;;7.60;99.90;;;;;;4949891;28;20659;-81
2021/11/17 09:42:04;;;;;;;14.47;13.57;;;7.60;99.90;;;;;;4949046;28;20278;-81
2021/11/17 09:44:39;;;;;;;9.60;8.90;;;7.70;99.90;;;;;;4943497;28;20272;-81
2021/11/17 09:47:10;;;;;;;10.17;9.43;;;7.70;99.90;;;;;;4951805;28;20208;-81
2021/11/17 09:49:41;;;;;;;14.77;13.50;;;7.80;99.90;;;;;;4947536;28;20209;-81
2021/11/17 09:52:13;;;;;;;8.90;8.10;;;7.70;99.90;;;;;;4953754;29;20694;-81
2021/11/17 09:54:44;;;;;;;14.73;13.73;;;7.60;99.90;;;;;;4950279;28;20213;-81
2021/11/17 09:57:13;;;;;;;13.30;12.50;;;7.60;99.90;;;;;;4950623;28;20195;-81
2021/11/17 09:59:43;;;;;;;13.47;12.67;;;7.50;99.90;;;;;;4950456;28;20216;-81
2021/11/17 10:02:15;;;;;;;13.30;12.50;;;7.50;99.90;;;;;;4950268;28;20652;-81
2021/11/17 10:04:46;;;;;;;13.80;12.90;;;7.50;99.90;;;;;;4950719;28;20209;-81
2021/11/17 10:10:27;;;;;;;13.40;12.60;;;7.50;99.90;;;;;;4952307;28;20684;-80
2021/11/17 10:13:02;;;;;;;13.97;13.07;;;7.50;99.90;;;;;;4947857;28;20236;-81
2021/11/17 10:15:34;;;;;;;14.37;13.37;;;7.60;99.90;;;;;;4946681;28;20683;-81
2021/11/17 10:18:06;;;;;;;14.07;13.10;;;7.60;99.90;;;;;;4951257;29;20203;-81
2021/11/17 10:20:37;;;;;;;14.20;13.10;;;7.70;99.90;;;;;;4947672;28;20208;-81
2021/11/17 10:23:18;;;;;;;13.87;12.97;;;7.70;99.90;;;;;;4949134;28;20233;-81
2021/11/17 10:25:48;;;;;;;14.03;13.13;;;7.60;99.90;;;;;;4950242;28;20201;-81
2021/11/17 10:28:23;;;;;;;13.57;12.67;;;7.70;99.90;;;;;;4949727;28;20208;-81
2021/11/17 10:30:54;;;;;;;13.70;12.90;;;7.70;99.90;;;;;;4951943;28;20201;-80
2021/11/17 10:33:24;;;;;;;13.60;12.70;;;7.60;99.90;;;;;;4951843;28;20229;-81
2021/11/17 10:35:58;;;;;;;13.47;12.57;;;7.60;99.90;;;;;;4949332;28;20207;-81
2021/11/17 10:38:29;;;;;;;13.70;12.80;;;7.60;99.90;;;;;;4951081;28;20197;-81
2021/11/17 10:41:00;;;;;;;13.93;13.03;;;7.60;99.90;;;;;;4952192;28;20201;-80
2021/11/17 10:43:31;;;;;;;13.67;12.67;;;7.60;99.90;;;;;;4955587;28;20213;-80
2021/11/17 10:46:04;;;;;;;13.93;12.70;;;7.50;99.90;;;;;;4962138;28;20212;-81
2021/11/17 10:48:34;;;;;;;13.10;12.30;;;7.50;99.90;;;;;;4945642;28;20196;-81
2021/11/17 10:51:09;;;;;;;13.40;12.43;;;7.50;99.90;;;;;;4953071;28;20210;-81
2021/11/17 10:53:38;;;;;;;6.13;5.53;;;7.50;99.90;;;;;;4947825;28;20225;-81
2021/11/17 10:56:07;;;;;;;11.57;10.70;;;7.60;99.90;;;;;;4956101;28;20193;-79
2021/11/17 10:58:37;;;;;;;4.97;4.50;;;7.50;99.90;;;;;;4952745;28;20208;-81
2021/11/17 11:01:13;;;;;;;5.50;5.07;;;7.50;99.90;;;;;;4955855;28;20233;-81
2021/11/17 11:03:43;;;;;;;8.43;7.73;;;7.40;99.90;;;;;;4954393;28;20270;-81
2021/11/17 11:06:16;;;;;;;10.83;10.13;;;7.30;99.90;;;;;;4955207;28;20292;-81
2021/11/17 11:08:51;;;;;;;6.40;5.80;;;7.20;99.90;;;;;;4956298;28;20266;-81
2021/11/17 11:11:20;;;;;;;5.97;5.47;;;7.20;99.90;;;;;;4954977;28;20204;-80
2021/11/17 11:13:50;;;;;;;6.67;6.10;;;7.20;99.90;;;;;;4952941;29;20264;-80
2021/11/17 11:16:20;;;;;;;4.80;4.40;;;7.10;99.90;;;;;;4950889;28;20204;-81
2021/11/17 11:18:52;;;;;;;6.73;6.20;;;7.10;99.90;;;;;;4950395;28;20271;-81
2021/11/17 11:21:57;;;;;;;6.77;6.27;;;7.00;99.90;;;;;;4950364;28;20769;-81
2021/11/17 11:24:33;;;;;;;12.60;11.80;;;7.00;99.90;;;;;;4955239;28;20199;-82
2021/11/17 11:27:16;;;;;;;12.90;12.10;;;6.90;99.90;;;;;;4953127;28;20266;-80
2021/11/17 11:29:45;;;;;;;9.47;8.77;;;6.90;99.90;;;;;;4949231;28;20247;-80
2021/11/17 11:32:47;;;;;;;6.37;5.97;;;7.00;99.90;;;;;;4950235;28;20603;-80
2021/11/17 11:35:19;;;;;;;5.77;5.30;;;7.00;99.90;;;;;;4950504;28;20673;-80
2021/11/17 11:38:07;;;;;;;10.23;9.53;;;7.00;99.90;;;;;;4951910;28;20740;-81
2021/11/17 11:41:00;;;;;;;11.07;10.27;;;6.90;99.90;;;;;;4946363;28;20196;-80
2021/11/17 11:43:27;;;;;;;10.93;10.13;;;7.00;99.90;;;;;;4953763;28;20215;-81
2021/11/17 11:45:56;;;;;;;4.73;4.37;;;6.90;99.90;;;;;;4951718;29;20195;-81
2021/11/17 11:48:55;;;;;;;12.93;12.10;;;6.90;99.90;;;;;;4947916;28;20900;-79
2021/11/17 11:52:14;;;;;;;10.03;9.40;;;6.90;99.90;;;;;;4926732;29;20205;-81
2021/11/17 11:55:14;;;;;;;13.77;12.87;;;6.90;99.90;;;;;;4953184;28;20710;-80
2021/11/17 11:57:45;;;;;;;8.27;7.47;;;6.90;99.90;;;;;;4944432;28;20207;-80
2021/11/17 12:00:17;;;;;;;12.30;11.53;;;6.90;99.90;;;;;;4953672;28;20207;-80
2021/11/17 12:02:48;;;;;;;7.50;7.00;;;6.90;99.90;;;;;;4956244;28;20226;-80
2021/11/17 12:05:39;;;;;;;16.43;15.33;;;7.00;99.90;;;;;;4953302;28;20202;-81
2021/11/17 12:08:12;;;;;;;12.10;11.30;;;6.90;99.90;;;;;;4946726;28;20214;-79
2021/11/17 12:10:42;;;;;;;6.13;5.63;;;6.90;99.90;;;;;;4949813;28;20270;-79
2021/11/17 12:13:13;;;;;;;11.63;10.70;;;6.80;99.90;;;;;;4953644;28;20267;-80
2021/11/17 12:15:54;;;;;;;10.63;9.83;;;6.90;99.90;;;;;;4951571;28;20294;-80
2021/11/17 12:18:22;;;;;;;10.33;9.63;;;6.90;99.90;;;;;;4950596;28;20211;-79
2021/11/17 12:21:02;;;;;;;7.43;6.83;;;7.00;99.90;;;;;;4953959;28;20567;-80
2021/11/17 12:23:32;;;;;;;5.27;4.77;;;7.00;99.90;;;;;;4935942;28;20255;-79
2021/11/17 12:26:07;;;;;;;5.00;4.60;;;7.00;99.90;;;;;;4935637;28;20216;-80
2021/11/17 12:28:41;;;;;;;7.50;7.00;;;7.00;99.90;;;;;;4945586;28;20195;-79
2021/11/17 12:31:12;;;;;;;5.33;4.87;;;7.00;99.90;;;;;;4952862;28;20195;-80
2021/11/17 12:33:45;;;;;;;10.50;9.80;;;7.10;99.90;;;;;;4954151;28;20704;-80
2021/11/17 12:36:19;;;;;;;9.20;8.37;;;7.10;99.90;;;;;;4953887;28;20259;-80
2021/11/17 12:38:46;;;;;;;9.47;8.77;;;7.10;99.90;;;;;;4951580;28;20207;-80
2021/11/17 12:41:18;;;;;;;8.20;7.60;;;7.10;99.90;;;;;;4950292;28;20210;-80
2021/11/17 12:43:53;;;;;;;7.83;6.67;;;7.20;99.90;;;;;;4952286;28;20622;-80
2021/11/17 12:46:25;;;;;;;8.80;8.27;;;7.20;99.90;;;;;;4953134;28;20677;-80
2021/11/17 12:48:55;;;;;;;6.47;5.97;;;7.20;99.90;;;;;;4949074;28;20259;-80
2021/11/17 12:51:25;;;;;;;10.37;9.57;;;7.30;99.90;;;;;;4955087;29;20196;-80
2021/11/17 12:53:56;;;;;;;4.83;4.37;;;7.20;99.90;;;;;;4951642;28;20364;-80
2021/11/17 12:56:43;;;;;;;4.47;4.07;;;7.20;99.90;;;;;;4950313;28;20231;-79
2021/11/17 12:59:13;;;;;;;5.47;4.77;;;7.20;99.90;;;;;;4949992;28;20215;-80
2021/11/17 13:01:45;;;;;;;5.07;4.67;;;7.10;99.90;;;;;;4949203;28;20740;-79
2021/11/17 13:04:20;;;;;;;9.33;8.73;;;7.10;99.90;;;;;;4949737;28;20211;-80
2021/11/17 13:06:53;;;;;;;8.80;8.10;;;7.10;99.90;;;;;;4949929;28;20635;-79
2021/11/17 13:09:24;;;;;;;4.10;3.70;;;7.10;99.90;;;;;;4953764;28;20217;-80
2021/11/17 13:12:19;;;;;;;4.50;4.00;;;7.10;99.90;;;;;;4947442;28;20319;-80
2021/11/17 13:15:08;;;;;;;5.47;4.27;;;7.10;99.90;;;;;;4925952;28;20212;-80
2021/11/17 13:17:42;;;;;;;10.60;9.83;;;7.10;99.90;;;;;;4950864;28;20291;-80
2021/11/17 13:20:36;;;;;;;9.73;9.03;;;7.10;99.90;;;;;;4951698;28;20285;-79
2021/11/17 13:23:25;;;;;;;4.70;4.00;;;7.10;99.90;;;;;;4950351;28;20229;-80
2021/11/17 13:25:54;;;;;;;4.60;4.20;;;7.20;99.90;;;;;;4950346;28;20197;-79
2021/11/17 13:28:40;;;;;;;3.93;3.63;;;7.10;99.90;;;;;;4946621;28;20270;-79
2021/11/17 13:31:34;;;;;;;3.80;3.50;;;7.20;99.90;;;;;;4946735;28;20633;-80
2021/11/17 13:34:04;;;;;;;3.77;3.50;;;7.10;99.90;;;;;;4947426;28;20232;-80
2021/11/17 13:36:40;;;;;;;3.90;3.60;;;7.10;99.90;;;;;;4937453;28;20212;-80
2021/11/17 13:39:10;;;;;;;4.43;3.50;;;7.10;99.90;;;;;;4946766;28;20272;-80
2021/11/17 13:41:43;;;;;;;3.57;3.30;;;7.20;99.90;;;;;;4950149;28;20278;-80
2021/11/17 13:44:11;;;;;;;3.80;3.50;;;7.20;99.90;;;;;;4950199;28;20196;-80
2021/11/17 13:46:38;;;;;;;3.87;3.57;;;7.20;99.90;;;;;;4953749;28;20203;-79
2021/11/17 13:49:05;;;;;;;3.50;3.20;;;7.20;99.90;;;;;;4952182;29;20191;-80
2021/11/17 13:51:33;;;;;;;3.50;3.30;;;7.10;99.90;;;;;;4949050;28;20231;-80
2021/11/17 13:53:59;;;;;;;3.40;3.10;;;7.20;99.90;;;;;;4947613;28;20341;-80
2021/11/17 13:56:30;;;;;;;3.50;3.20;;;7.20;99.90;;;;;;4948690;28;20254;-80
2021/11/17 13:58:58;;;;;;;3.40;3.10;;;7.20;99.90;;;;;;4947279;28;20205;-80
2021/11/17 14:01:25;;;;;;;3.50;3.20;;;7.20;99.90;;;;;;4951166;28;20265;-80
2021/11/17 14:03:52;;;;;;;3.10;2.90;;;7.20;99.90;;;;;;4950169;28;20204;-80
2021/11/17 14:06:22;;;;;;;3.10;2.90;;;7.10;99.90;;;;;;4951263;28;20258;-80
2021/11/17 14:08:49;;;;;;;3.47;3.17;;;7.10;99.90;;;;;;4947695;28;20227;-80
2021/11/17 14:11:16;;;;;;;3.40;3.20;;;7.10;99.90;;;;;;4948354;28;20216;-79
2021/11/17 14:13:46;;;;;;;4.27;3.97;;;7.00;99.90;;;;;;4950172;28;20231;-80
2021/11/17 14:16:14;;;;;;;9.93;9.33;;;7.00;99.90;;;;;;4950079;28;20213;-80
2021/11/17 14:18:41;;;;;;;11.70;11.00;;;7.10;99.90;;;;;;4957182;28;20204;-80
2021/11/17 14:21:09;;;;;;;12.00;11.27;;;7.00;99.90;;;;;;4956086;28;20205;-80
2021/11/17 14:23:37;;;;;;;11.77;11.00;;;7.00;99.90;;;;;;4954929;28;20221;-80
2021/11/17 14:26:08;;;;;;;12.50;11.70;;;6.90;99.90;;;;;;4952795;28;20206;-79
2021/11/17 14:28:38;;;;;;;12.20;11.50;;;6.90;99.90;;;;;;4951609;28;20232;-80
2021/11/17 14:31:11;;;;;;;11.80;11.10;;;7.00;99.90;;;;;;4950615;28;20298;-79
2021/11/17 14:33:39;;;;;;;12.20;11.30;;;7.00;99.90;;;;;;4953612;28;20211;-79
2021/11/17 14:36:09;;;;;;;12.60;11.80;;;6.90;99.90;;;;;;4953818;29;20274;-79
2021/11/17 14:38:37;;;;;;;12.43;11.63;;;6.90;99.90;;;;;;4949259;28;20204;-80
2021/11/17 14:41:04;;;;;;;12.60;11.80;;;6.90;99.90;;;;;;4954572;28;20215;-79
2021/11/17 14:43:32;;;;;;;12.00;11.30;;;6.80;99.90;;;;;;4953672;28;20222;-79
2021/11/17 14:45:59;;;;;;;12.23;11.43;;;6.90;99.90;;;;;;4953395;28;20203;-80
2021/11/17 14:48:28;;;;;;;12.60;11.70;;;6.80;99.90;;;;;;4953911;28;20203;-80
2021/11/17 14:50:56;;;;;;;12.77;11.87;;;6.80;99.90;;;;;;4953839;28;20661;-80
2021/11/17 14:53:23;;;;;;;13.30;12.30;;;6.90;99.90;;;;;;4954262;28;20228;-80
2021/11/17 14:55:50;;;;;;;13.00;12.20;;;6.80;99.90;;;;;;4951304;28;20199;-80
2021/11/17 14:58:16;;;;;;;12.97;12.17;;;6.80;99.90;;;;;;4931966;28;20264;-79
2021/11/17 15:00:47;;;;;;;13.10;12.20;;;6.80;99.90;;;;;;4946347;28;20204;-80
2021/11/17 15:03:14;;;;;;;12.90;12.00;;;6.80;99.90;;;;;;4947321;28;20277;-78
2021/11/17 15:05:42;;;;;;;13.40;12.50;;;6.80;99.90;;;;;;4940386;28;20205;-77
2021/11/17 15:08:09;;;;;;;12.83;12.00;;;6.80;99.90;;;;;;4935546;28;20341;-78
2021/11/17 15:10:36;;;;;;;12.87;12.07;;;6.80;99.90;;;;;;4942861;28;20213;-79
2021/11/17 15:13:04;;;;;;;12.80;12.00;;;6.80;99.90;;;;;;4946537;28;20272;-77
2021/11/17 15:15:34;;;;;;;13.07;12.27;;;6.80;99.90;;;;;;4948247;28;20267;-77
2021/11/17 15:18:01;;;;;;;13.17;12.33;;;6.80;99.90;;;;;;4944364;28;20887;-77
2021/11/17 15:20:29;;;;;;;13.07;12.17;;;6.80;99.90;;;;;;4943813;28;20254;-77
2021/11/17 15:22:57;;;;;;;13.47;12.57;;;6.80;99.90;;;;;;4940816;29;20222;-77
2021/11/17 15:25:26;;;;;;;13.20;12.37;;;6.80;99.90;;;;;;4941458;29;20731;-78
2021/11/17 15:27:57;;;;;;;13.40;12.50;;;6.70;99.90;;;;;;4938925;28;20736;-77
2021/11/17 15:30:27;;;;;;;13.63;12.67;;;6.70;99.90;;;;;;4943758;28;20639;-79
2021/11/17 15:32:55;;;;;;;13.37;12.47;;;6.70;99.90;;;;;;4947945;28;20230;-79
2021/11/17 15:35:25;;;;;;;13.43;12.43;;;6.70;99.90;;;;;;4942156;29;20306;-78
2021/11/17 15:37:52;;;;;;;13.47;12.57;;;6.70;99.90;;;;;;4941990;28;20207;-77
2021/11/17 15:40:23;;;;;;;12.83;11.93;;;6.70;99.90;;;;;;4940165;28;20263;-78
2021/11/17 15:42:51;;;;;;;13.20;12.27;;;6.80;99.90;;;;;;4948043;28;20220;-78
2021/11/17 15:45:19;;;;;;;13.37;12.43;;;6.70;99.90;;;;;;4952035;28;20197;-78
2021/11/17 15:47:47;;;;;;;13.50;12.40;;;6.70;99.90;;;;;;4952244;28;20203;-76
2021/11/17 15:50:17;;;;;;;12.90;11.90;;;6.70;99.90;;;;;;4952814;28;20585;-77